Time;durP1;ratioP1;P1;durP2;ratioP2;P2;SDS_P1;SDS_P2;PMS_P1;PMS_P2;Temp;Humidity;BMP_temperature;BMP_pressure;BME280_temperature;BME280_humidity;BME280_pressure;Samples;Min_cycle;Max_cycle;Signal;HPM_P1;HPM_P2
2023/03/21 00:02:10;;;;;;;2.60;1.87;;;;;;;;;;5066686;28;20205;-29
2023/03/21 00:04:37;;;;;;;2.17;1.90;;;;;;;;;;5068693;28;20201;-26
2023/03/21 00:07:05;;;;;;;1.90;1.63;;;;;;;;;;5063241;28;20230;-30
2023/03/21 00:09:32;;;;;;;2.77;2.20;;;;;;;;;;5063988;28;20216;-26
2023/03/21 00:12:00;;;;;;;2.73;2.50;;;;;;;;;;5063850;28;20555;-28
2023/03/21 00:14:29;;;;;;;3.17;2.40;;;;;;;;;;5049855;28;20273;-28
2023/03/21 00:16:57;;;;;;;9.17;2.40;;;;;;;;;;5066351;28;20248;-28
2023/03/21 00:19:25;;;;;;;3.07;2.40;;;;;;;;;;5073005;28;20201;-31
2023/03/21 00:21:54;;;;;;;4.37;2.30;;;;;;;;;;5075337;28;20205;-28
2023/03/21 00:24:23;;;;;;;6.33;2.03;;;;;;;;;;5071838;28;20208;-28
2023/03/21 00:26:50;;;;;;;3.13;2.20;;;;;;;;;;5058006;28;20221;-28
2023/03/21 00:29:17;;;;;;;2.37;2.17;;;;;;;;;;5069745;28;20197;-28
2023/03/21 00:31:44;;;;;;;4.10;1.90;;;;;;;;;;5068000;28;20201;-29
2023/03/21 00:34:12;;;;;;;2.63;2.10;;;;;;;;;;5064094;28;20251;-26
2023/03/21 00:36:39;;;;;;;2.73;2.37;;;;;;;;;;5072302;28;20221;-29
2023/03/21 00:39:06;;;;;;;3.07;1.90;;;;;;;;;;5064865;28;20206;-28
2023/03/21 00:41:35;;;;;;;3.60;2.47;;;;;;;;;;5058924;28;20229;-29
2023/03/21 00:44:02;;;;;;;2.50;2.30;;;;;;;;;;5059777;28;20212;-28
2023/03/21 00:46:30;;;;;;;2.40;2.20;;;;;;;;;;5051618;28;20245;-26
2023/03/21 00:48:57;;;;;;;3.17;2.40;;;;;;;;;;5060198;28;20210;-26
2023/03/21 00:51:25;;;;;;;3.77;2.83;;;;;;;;;;5052012;28;20241;-28
2023/03/21 00:53:53;;;;;;;2.90;2.53;;;;;;;;;;5063389;28;20253;-29
2023/03/21 00:56:20;;;;;;;4.97;2.67;;;;;;;;;;5067360;28;20213;-28
2023/03/21 00:58:49;;;;;;;5.17;3.20;;;;;;;;;;5067201;28;20202;-28
2023/03/21 01:01:17;;;;;;;2.97;2.77;;;;;;;;;;5066586;28;20205;-29
2023/03/21 01:03:46;;;;;;;3.40;2.80;;;;;;;;;;5063363;28;20243;-30
2023/03/21 01:06:18;;;;;;;3.50;2.63;;;;;;;;;;5072169;28;20205;-30
2023/03/21 01:08:45;;;;;;;4.97;2.90;;;;;;;;;;5067246;28;20205;-29
2023/03/21 01:11:13;;;;;;;3.37;2.93;;;;;;;;;;5057559;28;20212;-27
2023/03/21 01:13:40;;;;;;;2.63;2.30;;;;;;;;;;5059269;28;20217;-26
2023/03/21 01:16:10;;;;;;;3.00;2.70;;;;;;;;;;5062014;28;20221;-29
2023/03/21 01:18:38;;;;;;;4.83;2.17;;;;;;;;;;5063625;28;20197;-28
2023/03/21 01:21:07;;;;;;;2.40;2.20;;;;;;;;;;5072782;28;20224;-27
2023/03/21 01:23:34;;;;;;;4.90;2.20;;;;;;;;;;5061179;28;20206;-28
2023/03/21 01:26:01;;;;;;;3.37;2.50;;;;;;;;;;5065163;28;20205;-28
2023/03/21 01:28:29;;;;;;;2.83;2.43;;;;;;;;;;5067736;28;20221;-28
2023/03/21 01:30:56;;;;;;;3.87;2.80;;;;;;;;;;5062051;28;20212;-27
2023/03/21 01:33:25;;;;;;;2.77;2.53;;;;;;;;;;5063847;28;20225;-28
2023/03/21 01:35:52;;;;;;;3.00;2.50;;;;;;;;;;5071818;28;20251;-28
2023/03/21 01:38:20;;;;;;;4.47;2.90;;;;;;;;;;5068420;28;20217;-27
2023/03/21 01:40:48;;;;;;;3.17;2.80;;;;;;;;;;5061460;28;20239;-29
2023/03/21 01:43:20;;;;;;;3.00;2.70;;;;;;;;;;5070966;28;20194;-28
2023/03/21 01:46:20;;;;;;;2.57;2.30;;;;;;;;;;5059028;28;20225;-26
2023/03/21 01:48:50;;;;;;;2.93;2.40;;;;;;;;;;5036606;28;20201;-30
2023/03/21 01:51:18;;;;;;;3.73;2.47;;;;;;;;;;5071173;28;20220;-30
2023/03/21 01:53:46;;;;;;;3.10;2.63;;;;;;;;;;5065885;28;20625;-27
2023/03/21 01:56:17;;;;;;;2.87;2.50;;;;;;;;;;5066119;28;20224;-31
2023/03/21 01:58:44;;;;;;;3.37;2.57;;;;;;;;;;5065918;28;20202;-38
2023/03/21 02:01:12;;;;;;;3.97;2.87;;;;;;;;;;5055861;28;20201;-32
2023/03/21 02:03:49;;;;;;;3.13;2.63;;;;;;;;;;5051122;28;20201;-33
2023/03/21 02:06:20;;;;;;;3.70;2.50;;;;;;;;;;5068916;28;20234;-34
2023/03/21 02:08:48;;;;;;;4.87;2.90;;;;;;;;;;5069295;28;20205;-36
2023/03/21 02:11:15;;;;;;;3.30;2.60;;;;;;;;;;5063694;28;20201;-38
2023/03/21 02:13:43;;;;;;;2.80;2.33;;;;;;;;;;5058652;28;20237;-31
2023/03/21 02:18:43;;;;;;;2.50;2.13;;;;;;;;;;4989190;28;20231;-36
2023/03/21 02:21:25;;;;;;;2.53;2.33;;;;;;;;;;4991244;28;20196;-30
2023/03/21 02:24:06;;;;;;;3.40;2.17;;;;;;;;;;4983605;28;20200;-34
2023/03/21 02:26:57;;;;;;;2.83;2.20;;;;;;;;;;4988630;28;20234;-29
2023/03/21 02:29:32;;;;;;;2.57;2.37;;;;;;;;;;4973422;28;20223;-28
2023/03/21 02:32:05;;;;;;;5.00;3.10;;;;;;;;;;4979159;28;20191;-36
2023/03/21 02:34:45;;;;;;;3.77;2.60;;;;;;;;;;4991254;28;20230;-36
2023/03/21 02:37:19;;;;;;;4.07;2.80;;;;;;;;;;4991454;28;20242;-40
2023/03/21 02:39:54;;;;;;;2.73;2.53;;;;;;;;;;4988218;28;20206;-32
2023/03/21 02:42:26;;;;;;;2.70;2.50;;;;;;;;;;4992122;28;20218;-32
2023/03/21 02:44:58;;;;;;;3.37;2.27;;;;;;;;;;4985358;28;20211;-33
2023/03/21 02:47:27;;;;;;;3.00;2.77;;;;;;;;;;4982026;28;20232;-35
2023/03/21 02:49:56;;;;;;;4.37;2.60;;;;;;;;;;4991193;28;20200;-30
2023/03/21 02:52:26;;;;;;;3.00;2.67;;;;;;;;;;4986417;28;20200;-37
2023/03/21 02:54:55;;;;;;;4.90;2.67;;;;;;;;;;4991669;28;20219;-38
2023/03/21 02:57:22;;;;;;;3.77;2.70;;;;;;;;;;4991160;28;20230;-37
2023/03/21 02:59:50;;;;;;;3.30;3.00;;;;;;;;;;4986568;28;20227;-33
2023/03/21 03:02:21;;;;;;;4.43;2.80;;;;;;;;;;4986912;28;20212;-33
2023/03/21 03:04:49;;;;;;;4.63;3.00;;;;;;;;;;4992626;28;20211;-36
2023/03/21 03:07:23;;;;;;;2.63;2.43;;;;;;;;;;4991820;28;20228;-39
2023/03/21 03:10:02;;;;;;;3.80;2.97;;;;;;;;;;4980192;28;20208;-29
2023/03/21 03:12:34;;;;;;;3.23;2.83;;;;;;;;;;4987634;28;20203;-34
2023/03/21 03:15:07;;;;;;;2.90;2.60;;;;;;;;;;4984194;28;20225;-35
2023/03/21 03:17:44;;;;;;;4.47;2.83;;;;;;;;;;4982643;28;20242;-38
2023/03/21 03:20:19;;;;;;;3.60;2.60;;;;;;;;;;4990474;28;20212;-39
2023/03/21 03:22:49;;;;;;;4.10;3.10;;;;;;;;;;4983053;28;20203;-36
2023/03/21 03:25:21;;;;;;;2.97;2.67;;;;;;;;;;4981736;28;20219;-29
2023/03/21 03:27:50;;;;;;;4.00;2.70;;;;;;;;;;4990471;28;20228;-36
2023/03/21 03:30:17;;;;;;;2.93;2.60;;;;;;;;;;4980105;28;20223;-32
2023/03/21 03:32:46;;;;;;;3.20;2.90;;;;;;;;;;4989009;28;20242;-32
2023/03/21 03:35:16;;;;;;;3.20;2.80;;;;;;;;;;4990376;28;20400;-28
2023/03/21 03:37:46;;;;;;;3.97;2.77;;;;;;;;;;4990546;28;20243;-34
2023/03/21 03:40:16;;;;;;;4.43;2.80;;;;;;;;;;4982057;28;20215;-33
2023/03/21 03:42:48;;;;;;;4.67;2.83;;;;;;;;;;4990157;28;20208;-30
2023/03/21 03:45:15;;;;;;;3.73;3.03;;;;;;;;;;4983752;28;20219;-35
2023/03/21 03:47:43;;;;;;;3.70;2.87;;;;;;;;;;4984659;28;20232;-35
2023/03/21 03:50:14;;;;;;;3.30;2.70;;;;;;;;;;4992253;28;20206;-37
2023/03/21 03:52:45;;;;;;;3.67;2.63;;;;;;;;;;4994532;28;20251;-32
2023/03/21 03:55:15;;;;;;;4.33;2.97;;;;;;;;;;4987718;28;20238;-30
2023/03/21 03:57:42;;;;;;;3.20;2.90;;;;;;;;;;4993393;28;20247;-33
2023/03/21 04:00:12;;;;;;;3.47;2.53;;;;;;;;;;4982067;28;20205;-30
2023/03/21 04:02:39;;;;;;;3.37;2.53;;;;;;;;;;4986369;28;20212;-31
2023/03/21 04:05:07;;;;;;;4.27;2.60;;;;;;;;;;4994089;28;20200;-33
2023/03/21 04:07:34;;;;;;;3.13;2.63;;;;;;;;;;4983747;28;20248;-37
2023/03/21 04:10:01;;;;;;;4.17;2.33;;;;;;;;;;4988142;28;20207;-32
2023/03/21 04:12:28;;;;;;;4.00;2.70;;;;;;;;;;4994067;28;20287;-32
2023/03/21 04:14:55;;;;;;;2.37;2.17;;;;;;;;;;4982349;28;20224;-35
2023/03/21 04:17:24;;;;;;;3.50;2.80;;;;;;;;;;4990124;28;20243;-36
2023/03/21 04:19:51;;;;;;;3.57;2.60;;;;;;;;;;4993845;28;20203;-30
2023/03/21 04:22:19;;;;;;;4.07;2.70;;;;;;;;;;4993767;28;20215;-36
2023/03/21 04:24:47;;;;;;;3.60;2.90;;;;;;;;;;4981536;28;20208;-30
2023/03/21 04:27:14;;;;;;;3.17;2.57;;;;;;;;;;4993417;28;20232;-36
2023/03/21 04:29:41;;;;;;;3.27;2.57;;;;;;;;;;4988218;28;20278;-37
2023/03/21 04:32:15;;;;;;;3.73;2.80;;;;;;;;;;4993735;28;20208;-38
2023/03/21 04:34:48;;;;;;;2.83;2.50;;;;;;;;;;4994545;28;20224;-35
2023/03/21 04:37:16;;;;;;;3.93;2.80;;;;;;;;;;4992040;28;20318;-39
2023/03/21 04:39:45;;;;;;;3.33;2.90;;;;;;;;;;4995642;28;20213;-33
2023/03/21 04:42:13;;;;;;;3.23;2.80;;;;;;;;;;4997115;28;20219;-33
2023/03/21 04:44:40;;;;;;;4.60;2.70;;;;;;;;;;4986570;28;20314;-33
2023/03/21 04:47:07;;;;;;;4.10;3.20;;;;;;;;;;4987942;28;20232;-33
2023/03/21 04:49:34;;;;;;;4.00;2.73;;;;;;;;;;4993223;28;20200;-35
2023/03/21 04:52:03;;;;;;;3.30;3.00;;;;;;;;;;4990540;28;20302;-30
2023/03/21 04:54:31;;;;;;;4.27;3.13;;;;;;;;;;4986518;28;20229;-37
2023/03/21 04:56:58;;;;;;;3.83;2.73;;;;;;;;;;4993202;28;20279;-36
2023/03/21 04:59:26;;;;;;;4.37;3.00;;;;;;;;;;4989632;28;20212;-32
2023/03/21 05:01:55;;;;;;;2.70;2.50;;;;;;;;;;4986975;28;20266;-36
2023/03/21 05:04:23;;;;;;;3.10;2.90;;;;;;;;;;4993239;28;20209;-38
2023/03/21 05:06:50;;;;;;;3.03;2.57;;;;;;;;;;4989788;28;20227;-36
2023/03/21 05:09:18;;;;;;;3.13;2.07;;;;;;;;;;4991683;28;20204;-33
2023/03/21 05:11:45;;;;;;;3.40;3.10;;;;;;;;;;4992551;28;20201;-32
2023/03/21 05:14:15;;;;;;;3.47;2.77;;;;;;;;;;4970104;28;20233;-32
2023/03/21 05:16:47;;;;;;;3.30;3.00;;;;;;;;;;4985773;28;20240;-38
2023/03/21 05:19:16;;;;;;;4.77;3.13;;;;;;;;;;4988546;28;20239;-37
2023/03/21 05:21:45;;;;;;;3.00;2.70;;;;;;;;;;4984071;28;20224;-39
2023/03/21 05:24:19;;;;;;;6.67;3.23;;;;;;;;;;4995442;28;20220;-30
2023/03/21 05:26:51;;;;;;;5.40;2.93;;;;;;;;;;4995800;28;20231;-29
2023/03/21 05:29:18;;;;;;;3.77;2.67;;;;;;;;;;4983748;28;20216;-35
2023/03/21 05:31:46;;;;;;;3.27;2.87;;;;;;;;;;4981294;28;20219;-35
2023/03/21 05:34:13;;;;;;;4.87;3.20;;;;;;;;;;4992443;28;20215;-34
2023/03/21 05:36:41;;;;;;;3.43;2.63;;;;;;;;;;4991895;28;20224;-39
2023/03/21 05:39:08;;;;;;;5.17;3.00;;;;;;;;;;4981787;28;20204;-32
2023/03/21 05:41:36;;;;;;;3.13;2.57;;;;;;;;;;4994295;28;20200;-33
2023/03/21 05:44:03;;;;;;;6.37;3.30;;;;;;;;;;4991565;28;20201;-37
2023/03/21 05:46:30;;;;;;;3.10;2.80;;;;;;;;;;4985753;28;20228;-36
2023/03/21 05:48:58;;;;;;;3.57;3.00;;;;;;;;;;4994038;28;20258;-37
2023/03/21 05:51:28;;;;;;;4.17;3.00;;;;;;;;;;4991794;28;20210;-33
2023/03/21 05:53:55;;;;;;;3.37;2.60;;;;;;;;;;4989794;28;20224;-31
2023/03/21 05:56:22;;;;;;;5.57;2.67;;;;;;;;;;4992242;28;20295;-31
2023/03/21 05:58:51;;;;;;;4.10;2.60;;;;;;;;;;4988719;28;20215;-29
2023/03/21 06:01:18;;;;;;;3.33;2.50;;;;;;;;;;4978367;28;20216;-36
2023/03/21 06:03:46;;;;;;;3.83;2.90;;;;;;;;;;4992100;28;20200;-36
2023/03/21 06:06:13;;;;;;;8.13;3.33;;;;;;;;;;4993195;28;20204;-38
2023/03/21 06:08:41;;;;;;;4.53;3.30;;;;;;;;;;4984004;28;20208;-34
2023/03/21 06:11:11;;;;;;;4.43;3.70;;;;;;;;;;4993691;28;20199;-28
2023/03/21 06:13:38;;;;;;;3.50;2.90;;;;;;;;;;4983107;28;20220;-36
2023/03/21 06:16:07;;;;;;;4.47;3.20;;;;;;;;;;4988762;28;20204;-35
2023/03/21 06:18:34;;;;;;;3.53;3.13;;;;;;;;;;4990447;28;20223;-33
2023/03/21 06:21:01;;;;;;;3.93;3.17;;;;;;;;;;4982785;28;20216;-36
2023/03/21 06:23:28;;;;;;;3.70;3.17;;;;;;;;;;4989689;28;20698;-33
2023/03/21 06:25:55;;;;;;;4.23;2.87;;;;;;;;;;4993107;28;20215;-35
2023/03/21 06:28:22;;;;;;;9.13;2.70;;;;;;;;;;4986670;28;20239;-38
2023/03/21 06:30:49;;;;;;;3.40;3.10;;;;;;;;;;4980752;28;20206;-35
2023/03/21 06:33:18;;;;;;;3.20;2.87;;;;;;;;;;4987716;28;20215;-33
2023/03/21 06:35:45;;;;;;;2.97;2.67;;;;;;;;;;4993239;28;20227;-33
2023/03/21 06:38:12;;;;;;;5.00;2.73;;;;;;;;;;4988312;28;20239;-35
2023/03/21 06:40:40;;;;;;;3.20;2.57;;;;;;;;;;4989024;28;20208;-36
2023/03/21 06:43:07;;;;;;;2.97;2.60;;;;;;;;;;4992966;28;20208;-40
2023/03/21 06:45:34;;;;;;;3.07;2.70;;;;;;;;;;4984565;28;20208;-38
2023/03/21 06:48:01;;;;;;;5.43;2.53;;;;;;;;;;4992426;28;20232;-35
2023/03/21 06:50:30;;;;;;;3.80;3.40;;;;;;;;;;4993201;28;20200;-38
2023/03/21 06:52:58;;;;;;;2.70;2.50;;;;;;;;;;4992752;28;20219;-41
2023/03/21 06:55:25;;;;;;;3.70;3.00;;;;;;;;;;4979045;28;20224;-31
2023/03/21 06:57:53;;;;;;;5.23;2.90;;;;;;;;;;4992644;28;20219;-36
2023/03/21 07:00:21;;;;;;;3.53;2.83;;;;;;;;;;4981793;28;20238;-33
2023/03/21 07:02:48;;;;;;;3.80;2.80;;;;;;;;;;4986895;28;20255;-39
2023/03/21 07:05:15;;;;;;;4.83;3.40;;;;;;;;;;4992995;28;20200;-37
2023/03/21 07:07:43;;;;;;;4.33;3.30;;;;;;;;;;4984269;28;20239;-31
2023/03/21 07:10:13;;;;;;;3.03;2.77;;;;;;;;;;4980526;28;20204;-34
2023/03/21 07:12:40;;;;;;;4.40;3.37;;;;;;;;;;4992689;28;20196;-34
2023/03/21 07:15:08;;;;;;;5.97;3.30;;;;;;;;;;4986441;28;20224;-34
2023/03/21 07:17:35;;;;;;;5.27;3.80;;;;;;;;;;4990532;28;20246;-41
2023/03/21 07:20:05;;;;;;;6.57;3.90;;;;;;;;;;4992638;28;20204;-36
2023/03/21 07:22:32;;;;;;;5.17;3.27;;;;;;;;;;4992245;28;20208;-33
2023/03/21 07:25:00;;;;;;;5.90;3.53;;;;;;;;;;4988717;28;20259;-31
2023/03/21 07:27:27;;;;;;;6.83;3.70;;;;;;;;;;4996392;28;20223;-33
2023/03/21 07:29:55;;;;;;;5.27;4.03;;;;;;;;;;4990890;28;20207;-40
2023/03/21 07:32:22;;;;;;;5.13;4.30;;;;;;;;;;4995260;28;20208;-33
2023/03/21 07:34:49;;;;;;;5.93;4.27;;;;;;;;;;4996036;28;20223;-30
2023/03/21 07:37:16;;;;;;;5.87;4.07;;;;;;;;;;4996799;28;20231;-36
2023/03/21 07:39:43;;;;;;;6.43;4.13;;;;;;;;;;4988126;28;20219;-33
2023/03/21 07:42:11;;;;;;;4.87;3.77;;;;;;;;;;4991582;28;20204;-31
2023/03/21 07:44:39;;;;;;;4.27;3.87;;;;;;;;;;4990171;28;20204;-35
2023/03/21 07:47:06;;;;;;;4.73;3.47;;;;;;;;;;4990912;28;20239;-33
2023/03/21 07:49:34;;;;;;;5.00;3.37;;;;;;;;;;4996226;28;20212;-33
2023/03/21 07:52:01;;;;;;;4.13;3.53;;;;;;;;;;4996635;28;20203;-32
2023/03/21 07:54:29;;;;;;;4.17;3.20;;;;;;;;;;4986297;28;20205;-34
2023/03/21 07:56:56;;;;;;;5.63;3.73;;;;;;;;;;4989575;28;20231;-30
2023/03/21 07:59:25;;;;;;;5.77;3.87;;;;;;;;;;4988740;28;20208;-38
2023/03/21 08:01:52;;;;;;;4.53;3.50;;;;;;;;;;4996512;28;20208;-32
2023/03/21 08:04:19;;;;;;;4.30;3.57;;;;;;;;;;4997378;28;20286;-38
2023/03/21 08:06:46;;;;;;;4.70;4.00;;;;;;;;;;4995210;28;20287;-36
2023/03/21 08:09:13;;;;;;;4.63;3.30;;;;;;;;;;4987790;28;20220;-39
2023/03/21 08:11:41;;;;;;;3.63;3.33;;;;;;;;;;4994914;28;20207;-40
2023/03/21 08:14:08;;;;;;;5.17;3.50;;;;;;;;;;4990673;28;20205;-34
2023/03/21 08:16:36;;;;;;;4.77;3.43;;;;;;;;;;4990030;28;20287;-35
2023/03/21 08:19:04;;;;;;;5.87;3.60;;;;;;;;;;4995502;28;20211;-32
2023/03/21 08:21:31;;;;;;;3.50;3.20;;;;;;;;;;4996048;28;20202;-36
2023/03/21 08:23:58;;;;;;;5.23;3.77;;;;;;;;;;4990598;28;20306;-36
2023/03/21 08:26:25;;;;;;;3.37;2.80;;;;;;;;;;4992547;28;20204;-29
2023/03/21 08:28:52;;;;;;;4.00;3.50;;;;;;;;;;4991773;28;20259;-40
2023/03/21 08:31:21;;;;;;;4.30;3.60;;;;;;;;;;4983984;28;20206;-30
2023/03/21 08:33:53;;;;;;;6.77;3.50;;;;;;;;;;4995064;28;20260;-36
2023/03/21 08:36:20;;;;;;;4.00;3.50;;;;;;;;;;4993717;28;20245;-35
2023/03/21 08:38:47;;;;;;;4.20;3.37;;;;;;;;;;4984597;28;20205;-37
2023/03/21 08:41:15;;;;;;;2.90;2.70;;;;;;;;;;4993838;28;20212;-36
2023/03/21 08:43:42;;;;;;;3.33;3.03;;;;;;;;;;4993380;28;20224;-36
2023/03/21 08:46:09;;;;;;;4.00;2.97;;;;;;;;;;4984838;28;20205;-34
2023/03/21 08:48:37;;;;;;;3.87;2.80;;;;;;;;;;4993751;28;20209;-41
2023/03/21 08:51:06;;;;;;;2.73;2.53;;;;;;;;;;4995473;28;20205;-37
2023/03/21 08:53:33;;;;;;;2.57;2.37;;;;;;;;;;4987136;28;20208;-39
2023/03/21 08:56:00;;;;;;;5.17;2.50;;;;;;;;;;4994107;28;20218;-41
2023/03/21 08:58:27;;;;;;;3.27;2.53;;;;;;;;;;4995024;28;20228;-36
2023/03/21 09:00:55;;;;;;;3.23;2.60;;;;;;;;;;4982712;28;20202;-40
2023/03/21 09:03:22;;;;;;;2.50;2.30;;;;;;;;;;4994081;28;20204;-38
2023/03/21 09:05:49;;;;;;;3.33;2.53;;;;;;;;;;4995383;28;20196;-32
2023/03/21 09:08:22;;;;;;;2.60;2.40;;;;;;;;;;4989610;28;20259;-35
2023/03/21 09:10:50;;;;;;;2.73;1.93;;;;;;;;;;4990723;28;20216;-40
2023/03/21 09:13:17;;;;;;;4.10;2.27;;;;;;;;;;4995166;28;20202;-33
2023/03/21 09:15:45;;;;;;;2.03;1.73;;;;;;;;;;4987004;28;20231;-37
2023/03/21 09:18:20;;;;;;;2.17;1.97;;;;;;;;;;4994326;28;20282;-37
2023/03/21 09:20:49;;;;;;;3.13;2.10;;;;;;;;;;4994886;28;20194;-35
2023/03/21 09:23:17;;;;;;;2.70;2.20;;;;;;;;;;4990876;28;20247;-34
2023/03/21 09:25:46;;;;;;;3.07;2.00;;;;;;;;;;4993479;28;20239;-35
2023/03/21 09:28:15;;;;;;;4.60;2.10;;;;;;;;;;4993971;28;20311;-33
2023/03/21 09:30:42;;;;;;;2.80;2.50;;;;;;;;;;4987878;28;20221;-34
2023/03/21 09:33:11;;;;;;;2.20;2.00;;;;;;;;;;4991410;28;20232;-33
2023/03/21 09:35:39;;;;;;;2.47;2.10;;;;;;;;;;4994235;28;20245;-35
2023/03/21 09:38:06;;;;;;;1.90;1.80;;;;;;;;;;4989605;28;20229;-35
2023/03/21 09:40:42;;;;;;;1.93;1.70;;;;;;;;;;4993404;28;20204;-33
2023/03/21 09:43:16;;;;;;;2.00;1.90;;;;;;;;;;4993973;28;20208;-30
2023/03/21 09:45:48;;;;;;;2.10;1.90;;;;;;;;;;4988523;28;20223;-29
2023/03/21 09:48:30;;;;;;;1.97;1.73;;;;;;;;;;4988388;28;20234;-34
2023/03/21 09:50:57;;;;;;;2.80;1.80;;;;;;;;;;4988806;28;20238;-37
2023/03/21 09:53:26;;;;;;;2.37;2.17;;;;;;;;;;4983744;28;20212;-36
2023/03/21 09:55:54;;;;;;;2.00;1.83;;;;;;;;;;4990042;28;20218;-32
2023/03/21 09:58:26;;;;;;;2.10;1.90;;;;;;;;;;4991994;28;20220;-34
2023/03/21 10:00:55;;;;;;;2.10;1.97;;;;;;;;;;4985918;28;20238;-35
2023/03/21 10:03:25;;;;;;;2.20;2.00;;;;;;;;;;4993190;28;20273;-36
2023/03/21 10:05:56;;;;;;;2.13;1.80;;;;;;;;;;4990668;28;20197;-36
2023/03/21 10:08:26;;;;;;;2.20;2.00;;;;;;;;;;4988978;28;20236;-38
2023/03/21 10:10:55;;;;;;;2.07;1.90;;;;;;;;;;4986859;28;20209;-36
2023/03/21 10:13:26;;;;;;;1.70;1.60;;;;;;;;;;4993792;28;20214;-40
2023/03/21 10:15:56;;;;;;;2.07;1.83;;;;;;;;;;4983910;28;20216;-35
2023/03/21 10:18:25;;;;;;;1.90;1.63;;;;;;;;;;4992405;28;20235;-37
2023/03/21 10:20:53;;;;;;;1.67;1.57;;;;;;;;;;4993380;28;20211;-33
2023/03/21 10:23:22;;;;;;;2.27;1.97;;;;;;;;;;4989409;28;20218;-31
2023/03/21 10:25:50;;;;;;;2.87;2.53;;;;;;;;;;4992668;28;20208;-37
2023/03/21 10:28:20;;;;;;;2.40;1.80;;;;;;;;;;4992752;28;20597;-36
2023/03/21 10:30:50;;;;;;;1.60;1.50;;;;;;;;;;4988266;28;20200;-30
2023/03/21 10:33:19;;;;;;;1.20;1.10;;;;;;;;;;4993352;28;20212;-35
2023/03/21 10:35:50;;;;;;;2.37;1.30;;;;;;;;;;4993010;28;20217;-33
2023/03/21 10:38:18;;;;;;;3.60;1.50;;;;;;;;;;4988962;28;20233;-37
2023/03/21 10:40:45;;;;;;;2.80;1.57;;;;;;;;;;4985668;28;20210;-35
2023/03/21 10:43:17;;;;;;;2.40;1.50;;;;;;;;;;4993119;28;20215;-35
2023/03/21 10:45:46;;;;;;;2.47;1.63;;;;;;;;;;4979295;28;20211;-33
2023/03/21 10:48:15;;;;;;;1.53;1.33;;;;;;;;;;4992866;28;20220;-36
2023/03/21 10:50:42;;;;;;;1.57;1.47;;;;;;;;;;4993084;28;20220;-39
2023/03/21 10:53:15;;;;;;;1.50;1.40;;;;;;;;;;4991421;28;20213;-41
2023/03/21 10:55:43;;;;;;;2.20;1.70;;;;;;;;;;4983976;28;20243;-35
2023/03/21 10:58:17;;;;;;;1.70;1.60;;;;;;;;;;4992611;28;20222;-33
2023/03/21 11:00:45;;;;;;;2.23;1.80;;;;;;;;;;4981670;28;20204;-39
2023/03/21 11:03:21;;;;;;;1.60;1.50;;;;;;;;;;4992459;28;20205;-33
2023/03/21 11:05:48;;;;;;;2.33;1.70;;;;;;;;;;4985083;28;20193;-32
2023/03/21 11:08:18;;;;;;;2.50;2.07;;;;;;;;;;4990556;28;20223;-36
2023/03/21 11:10:51;;;;;;;2.83;1.83;;;;;;;;;;4990316;28;20207;-32
2023/03/21 11:13:20;;;;;;;2.03;1.77;;;;;;;;;;4992400;28;20213;-33
2023/03/21 11:15:52;;;;;;;1.70;1.60;;;;;;;;;;4979366;28;20233;-34
2023/03/21 11:18:22;;;;;;;2.63;1.67;;;;;;;;;;4988952;28;20232;-36
2023/03/21 11:20:51;;;;;;;5.80;1.63;;;;;;;;;;4992982;28;20223;-39
2023/03/21 11:23:18;;;;;;;1.90;1.73;;;;;;;;;;4979618;28;20215;-36
2023/03/21 11:25:49;;;;;;;3.73;1.80;;;;;;;;;;4987674;28;20200;-37
2023/03/21 11:28:19;;;;;;;1.93;1.80;;;;;;;;;;4992071;28;20223;-33
2023/03/21 11:30:51;;;;;;;1.93;1.70;;;;;;;;;;4985524;28;20412;-35
2023/03/21 11:33:19;;;;;;;2.60;1.53;;;;;;;;;;4992430;28;20207;-32
2023/03/21 11:35:59;;;;;;;4.07;1.90;;;;;;;;;;4992253;28;20225;-34
2023/03/21 11:38:28;;;;;;;2.00;1.80;;;;;;;;;;4977786;28;20231;-33
2023/03/21 11:40:58;;;;;;;3.57;1.87;;;;;;;;;;4992117;28;20234;-35
2023/03/21 11:43:30;;;;;;;2.23;1.90;;;;;;;;;;4992511;28;20207;-36
2023/03/21 11:45:58;;;;;;;1.63;1.53;;;;;;;;;;4987364;28;20204;-36
2023/03/21 11:48:25;;;;;;;1.90;1.70;;;;;;;;;;4982124;28;20231;-36
2023/03/21 11:50:57;;;;;;;1.67;1.27;;;;;;;;;;4982408;28;20260;-35
2023/03/21 11:53:29;;;;;;;1.73;1.40;;;;;;;;;;4989082;28;20184;-39
2023/03/21 11:56:01;;;;;;;0.80;0.73;;;;;;;;;;4989543;28;20230;-40
2023/03/21 11:58:41;;;;;;;2.00;1.00;;;;;;;;;;4985536;28;20284;-31
2023/03/21 12:01:13;;;;;;;2.23;1.10;;;;;;;;;;4983431;28;20204;-36
2023/03/21 12:03:48;;;;;;;1.00;1.00;;;;;;;;;;4988508;28;20205;-32
2023/03/21 12:06:23;;;;;;;1.33;1.00;;;;;;;;;;4988933;28;20201;-31
2023/03/21 12:08:54;;;;;;;1.10;1.00;;;;;;;;;;4980471;28;20206;-32
2023/03/21 12:11:25;;;;;;;1.10;1.00;;;;;;;;;;4988461;28;20219;-33
2023/03/21 12:13:59;;;;;;;1.00;1.00;;;;;;;;;;4990116;28;20210;-34
2023/03/21 12:16:34;;;;;;;1.37;1.03;;;;;;;;;;4987729;28;20217;-33
2023/03/21 12:19:09;;;;;;;0.83;0.83;;;;;;;;;;4992640;28;20218;-36
2023/03/21 12:21:46;;;;;;;1.33;0.80;;;;;;;;;;4991886;28;20204;-30
2023/03/21 12:24:16;;;;;;;1.40;0.83;;;;;;;;;;4985055;28;20256;-35
2023/03/21 12:26:46;;;;;;;0.80;0.80;;;;;;;;;;4991670;28;20234;-37
2023/03/21 12:29:18;;;;;;;0.93;0.83;;;;;;;;;;4986851;28;20262;-36
2023/03/21 12:31:50;;;;;;;1.30;0.80;;;;;;;;;;4986329;28;20201;-36
2023/03/21 12:34:27;;;;;;;1.53;0.90;;;;;;;;;;4993080;28;20288;-36
2023/03/21 12:37:03;;;;;;;0.73;0.73;;;;;;;;;;4988072;28;20215;-31
2023/03/21 12:39:31;;;;;;;1.47;0.90;;;;;;;;;;4982256;28;20276;-31
2023/03/21 12:42:09;;;;;;;1.00;1.00;;;;;;;;;;4987601;28;20241;-36
2023/03/21 12:44:38;;;;;;;0.93;0.93;;;;;;;;;;4982880;28;20219;-36
2023/03/21 12:47:07;;;;;;;2.50;1.00;;;;;;;;;;4988538;28;20228;-38
2023/03/21 12:49:36;;;;;;;1.57;1.10;;;;;;;;;;4991642;28;20220;-34
2023/03/21 12:52:06;;;;;;;1.20;1.10;;;;;;;;;;4986186;28;20219;-35
2023/03/21 12:54:36;;;;;;;1.03;0.93;;;;;;;;;;4986057;28;20214;-38
2023/03/21 12:57:07;;;;;;;1.10;0.97;;;;;;;;;;4990834;28;20232;-30
2023/03/21 12:59:36;;;;;;;1.27;1.00;;;;;;;;;;4978156;28;20271;-37
2023/03/21 13:02:14;;;;;;;0.90;0.90;;;;;;;;;;4988698;28;20216;-42
2023/03/21 13:04:44;;;;;;;0.83;0.80;;;;;;;;;;4990127;28;20208;-36
2023/03/21 13:07:16;;;;;;;0.70;0.70;;;;;;;;;;4988950;28;20216;-36
2023/03/21 13:09:43;;;;;;;2.27;0.97;;;;;;;;;;4986829;28;20208;-34
2023/03/21 13:12:22;;;;;;;1.33;1.00;;;;;;;;;;4986372;28;20211;-39
2023/03/21 13:14:55;;;;;;;1.20;1.10;;;;;;;;;;4990240;28;20209;-32
2023/03/21 13:17:28;;;;;;;0.90;0.90;;;;;;;;;;4995429;28;20239;-33
2023/03/21 13:19:59;;;;;;;1.37;1.10;;;;;;;;;;4994587;28;20200;-30
2023/03/21 13:22:28;;;;;;;0.87;0.87;;;;;;;;;;4993502;28;20203;-34
2023/03/21 13:24:59;;;;;;;3.63;1.20;;;;;;;;;;4982270;28;20223;-31
2023/03/21 13:27:28;;;;;;;3.03;0.90;;;;;;;;;;4990698;28;20231;-35
2023/03/21 13:29:59;;;;;;;1.07;0.97;;;;;;;;;;4988258;28;20207;-32
2023/03/21 13:32:30;;;;;;;2.40;1.10;;;;;;;;;;4988818;28;20236;-36
2023/03/21 13:34:58;;;;;;;1.13;0.90;;;;;;;;;;4994914;28;20212;-39
2023/03/21 13:37:27;;;;;;;2.17;1.10;;;;;;;;;;4993962;28;20239;-33
2023/03/21 13:40:08;;;;;;;0.97;0.90;;;;;;;;;;4986532;28;20309;-33
2023/03/21 13:42:36;;;;;;;1.67;1.00;;;;;;;;;;4988027;28;20214;-36
2023/03/21 13:45:07;;;;;;;2.30;1.10;;;;;;;;;;4981454;28;20211;-27
2023/03/21 13:47:42;;;;;;;1.07;0.80;;;;;;;;;;4984796;28;20222;-31
2023/03/21 13:50:26;;;;;;;3.50;1.10;;;;;;;;;;4988622;28;20213;-33
2023/03/21 13:53:12;;;;;;;1.93;1.20;;;;;;;;;;4981941;28;20205;-33
2023/03/21 13:55:43;;;;;;;2.43;1.30;;;;;;;;;;4984278;28;20200;-33
2023/03/21 13:58:23;;;;;;;1.33;1.10;;;;;;;;;;4989371;28;20230;-36
2023/03/21 14:01:06;;;;;;;1.53;0.97;;;;;;;;;;4982277;28;20206;-33
2023/03/21 14:03:35;;;;;;;1.00;0.90;;;;;;;;;;4984405;28;20571;-36
2023/03/21 14:06:02;;;;;;;1.70;0.90;;;;;;;;;;4983207;28;20220;-35
2023/03/21 14:08:31;;;;;;;4.97;1.10;;;;;;;;;;4986004;28;20221;-35
2023/03/21 14:11:07;;;;;;;1.27;1.17;;;;;;;;;;4982522;28;20658;-35
2023/03/21 14:13:35;;;;;;;3.10;1.60;;;;;;;;;;4987048;28;20200;-36
2023/03/21 14:16:08;;;;;;;2.50;1.40;;;;;;;;;;4980904;28;20216;-37
2023/03/21 14:18:41;;;;;;;2.30;1.37;;;;;;;;;;4983072;28;20251;-33
2023/03/21 14:21:15;;;;;;;1.33;1.23;;;;;;;;;;4988492;28;20280;-35
2023/03/21 14:23:42;;;;;;;2.17;1.17;;;;;;;;;;4992226;28;20301;-34
2023/03/21 14:26:12;;;;;;;1.20;1.20;;;;;;;;;;4992863;28;20204;-37
2023/03/21 14:28:42;;;;;;;1.13;1.00;;;;;;;;;;4987132;28;20210;-33
2023/03/21 14:31:13;;;;;;;2.37;1.40;;;;;;;;;;4980728;28;20200;-34
2023/03/21 14:33:43;;;;;;;1.27;1.17;;;;;;;;;;4992167;28;20204;-28
2023/03/21 14:36:12;;;;;;;1.50;1.40;;;;;;;;;;4993016;28;20291;-35
2023/03/21 14:38:40;;;;;;;1.63;1.17;;;;;;;;;;4990347;28;20226;-39
2023/03/21 14:41:19;;;;;;;3.33;1.33;;;;;;;;;;4992390;28;20204;-34
2023/03/21 14:43:58;;;;;;;6.07;1.60;;;;;;;;;;4988149;28;20685;-30
2023/03/21 14:46:25;;;;;;;2.70;1.20;;;;;;;;;;4989880;28;20205;-31
2023/03/21 14:48:52;;;;;;;1.30;1.20;;;;;;;;;;4992452;28;20223;-36
2023/03/21 14:51:19;;;;;;;1.43;1.23;;;;;;;;;;4993053;28;20200;-33
2023/03/21 14:53:47;;;;;;;2.27;1.10;;;;;;;;;;4983090;28;20216;-34
2023/03/21 14:56:18;;;;;;;3.70;1.47;;;;;;;;;;4992527;28;20210;-38
2023/03/21 14:58:45;;;;;;;1.23;1.20;;;;;;;;;;4990067;28;20375;-32
2023/03/21 15:01:16;;;;;;;2.27;1.30;;;;;;;;;;4990206;28;20549;-36